Dahlonega, GA

1:03 PM EST on December 06, 2016 (GMT -0500)
Ridgeway Road | | Change Station

Elev 1519 ft 34.50 °N, 84.03 °W | Updated 34 minutes ago

Overcast
Overcast
48.9 °F
Feels Like 49 °F
N
0.0
Wind Variable Wind from ENE

Today
High -- | Low -- °F
--% Chance of Precip.
Yesterday
High -- | Low -- °F
Precip. -- in
Pressure 29.77 in
Visibility 10.0 miles
Clouds Mostly Cloudy 600 ft
Overcast 1000 ft
Windchill 49 °F
Dew Point 49 °F
Humidity 99%
Rainfall 0.66 in
Snow Depth Not available.
7:29 AM 5:25 PM
Waxing Crescent, 43% visible
METAR KGVL 061753Z AUTO 04006G16KT 10SM BKN006 OVC010 09/09 A2977 RMK AO2 RAB29E38 SLP079 P0000 60021 T00890089 10094 20083 58003
Pressure 29.77 in
Visibility 10.0 miles
Clouds Mostly Cloudy 600 ft
Overcast 1000 ft
Windchill 49 °F
Dew Point 49 °F
Humidity 99%
Rainfall 0.66 in
Snow Depth Not available.
7:29 AM 5:25 PM
Waxing Crescent, 43% visible
METAR KGVL 061753Z AUTO 04006G16KT 10SM BKN006 OVC010 09/09 A2977 RMK AO2 RAB29E38 SLP079 P0000 60021 T00890089 10094 20083 58003

10-Day Weather Forecast

Almanac

Astronomy

Dec. 06, 2016 Rise Set
Actual Time
Civil Twilight
Nautical Twilight
Astronomical Twilight
Moon
Length of Visible Light
Length of Day
Tomorrow will be .
, % of the Moon is Illuminated

Today's Extremes

State Highs State Lows

Community

WunderPhotos

Upload Photos

1,955,989 photos uploaded!

WunderBlog® & News

Nearby

Air Quality

  Air Quality AQ Index Pollutant
Not available.

Snow Depth

Station Depth Elevation

Earthquake Activity

City Distance Mag. Time & Date
Minimum magnitude displayed is 2.5.

Coastal Water Temperatures

Place Temperature

Stations

Nearby Weather Stations

Station Location Temp. Windchill Dew Point Humidity Wind Precip. Elev Updated Type
                   

Watches & Warnings

There are currently no watches in effect.